Timber Mountain, Nevada Weather observations

Data are for 10 minute period ending at time listed.
 Day   Time   Solar   Ave.   Ave.  Ave.  Vector  Max.   Baro.   Total    
  of    of     Rad.   Air    Rel.  Wind   Wind   Wind  Press.  Precip.   
Year   Day            Temp.  Hum.  Speed  Dir.   Gust                    
2016   (PST)  Kw/m2    F      %     mph   deg.    mph    mb.     in.     
-------------------------------------------------------------------------
 237    5:00   0.00   59.1    35    3.0   330     7.5   816.3    0.00 
 237    6:00   0.01   59.2    33    1.2   207     3.5   816.6    0.00 
 237    7:00   0.21   68.5    23    4.6   323    14.5   816.9    0.00 
 237    8:00   0.44   73.5    15   10.0   346    20.2   816.7    0.00 
 237    9:00   0.64   76.0    14   10.6   341    19.6   816.9    0.00 
 237   10:00   0.81   78.1    14   10.3   320    19.0   817.2    0.00 
 237   11:00   0.92   80.2    13    9.6   307    18.8   817.0    0.00 
 237   12:00   0.98   82.1    12    8.4   292    17.2   816.5    0.00 
 237   13:00   0.97   83.1    12    9.3   274    19.6   816.0    0.00 
 237   14:00   0.92   83.7    11   10.8   280    22.4   815.5    0.00 
 237   15:00   0.79   84.8    11    7.8   246    19.6   814.9    0.00 
 237   16:00   0.59   83.8    12    9.1   237    20.1   814.3    0.00 
 237   17:00   0.39   83.1    13    7.0   226    18.5   813.9    0.00 
 237   18:00   0.15   80.3    14    9.0   230    20.1   813.5    0.00 
 237   19:00   0.01   76.2    16    6.9   216    16.9   813.4    0.00 
 237   20:00   0.00   74.5    18    5.5   209    12.8   813.4    0.00 
 237   21:00   0.00   73.9    19    6.3   167    14.4   813.5    0.00 
 237   22:00   0.00   73.2    19    6.3   171    13.4   813.4    0.00 
 237   23:00   0.00   72.2    20    5.3   168    14.8   813.4    0.00 
 238    0:00   0.00   71.5    20    4.7   209    11.0   813.4    0.00 
 238    1:00   0.00   67.7    23    1.9   238     8.2   813.2    0.00 
 238    2:00   0.00   65.2    26    1.2   100     3.1   813.0    0.00 
 238    3:00   0.00   66.7    25    4.1   171     9.2   813.0    0.00 
 238    4:00   0.00   67.6    24    3.9   157     9.6   812.9    0.00 

Return to Timber Mountain graphs page.


Western Regional Climate Center,wrcc@dri.edu